sensor_id;sensor_type;location;lat;lon;timestamp;P1;durP1;ratioP1;P2;durP2;ratioP2
21894;SDS011;11112;51.270;7.224;2024-01-30T00:02:20;15.02;;;9.40;;
21894;SDS011;11112;51.270;7.224;2024-01-30T00:04:47;12.88;;;9.40;;
21894;SDS011;11112;51.270;7.224;2024-01-30T00:07:14;15.90;;;9.70;;
21894;SDS011;11112;51.270;7.224;2024-01-30T00:09:41;15.70;;;9.30;;
21894;SDS011;11112;51.270;7.224;2024-01-30T00:12:08;15.50;;;9.88;;
21894;SDS011;11112;51.270;7.224;2024-01-30T00:14:36;13.30;;;9.35;;
21894;SDS011;11112;51.270;7.224;2024-01-30T00:17:04;16.83;;;10.40;;
21894;SDS011;11112;51.270;7.224;2024-01-30T00:19:31;15.52;;;9.80;;
21894;SDS011;11112;51.270;7.224;2024-01-30T00:21:58;16.75;;;9.80;;
21894;SDS011;11112;51.270;7.224;2024-01-30T00:24:25;16.42;;;9.77;;
21894;SDS011;11112;51.270;7.224;2024-01-30T00:26:52;15.68;;;9.77;;
21894;SDS011;11112;51.270;7.224;2024-01-30T00:29:19;16.52;;;9.88;;
21894;SDS011;11112;51.270;7.224;2024-01-30T00:31:47;15.25;;;9.60;;
21894;SDS011;11112;51.270;7.224;2024-01-30T00:34:16;16.55;;;10.38;;
21894;SDS011;11112;51.270;7.224;2024-01-30T00:36:43;16.88;;;10.93;;
21894;SDS011;11112;51.270;7.224;2024-01-30T00:39:10;18.40;;;10.40;;
21894;SDS011;11112;51.270;7.224;2024-01-30T00:41:37;14.93;;;10.30;;
21894;SDS011;11112;51.270;7.224;2024-01-30T00:44:04;19.27;;;10.50;;
21894;SDS011;11112;51.270;7.224;2024-01-30T00:46:31;14.68;;;10.50;;
21894;SDS011;11112;51.270;7.224;2024-01-30T00:48:58;14.77;;;10.73;;
21894;SDS011;11112;51.270;7.224;2024-01-30T00:51:26;16.40;;;10.40;;
21894;SDS011;11112;51.270;7.224;2024-01-30T00:53:54;15.38;;;10.23;;
21894;SDS011;11112;51.270;7.224;2024-01-30T00:56:22;17.17;;;10.63;;
21894;SDS011;11112;51.270;7.224;2024-01-30T00:58:49;17.98;;;10.55;;
21894;SDS011;11112;51.270;7.224;2024-01-30T01:01:16;17.83;;;11.10;;
21894;SDS011;11112;51.270;7.224;2024-01-30T01:03:43;14.90;;;10.38;;
21894;SDS011;11112;51.270;7.224;2024-01-30T01:06:10;16.77;;;10.68;;
21894;SDS011;11112;51.270;7.224;2024-01-30T01:08:40;16.65;;;10.60;;
21894;SDS011;11112;51.270;7.224;2024-01-30T01:11:07;17.73;;;10.65;;
21894;SDS011;11112;51.270;7.224;2024-01-30T01:13:34;18.08;;;10.73;;
21894;SDS011;11112;51.270;7.224;2024-01-30T01:16:01;13.88;;;10.25;;
21894;SDS011;11112;51.270;7.224;2024-01-30T01:18:30;17.90;;;10.80;;
21894;SDS011;11112;51.270;7.224;2024-01-30T01:20:57;18.02;;;10.75;;
21894;SDS011;11112;51.270;7.224;2024-01-30T01:23:24;15.90;;;10.38;;
21894;SDS011;11112;51.270;7.224;2024-01-30T01:25:52;17.25;;;10.48;;
21894;SDS011;11112;51.270;7.224;2024-01-30T01:28:20;15.27;;;9.85;;
21894;SDS011;11112;51.270;7.224;2024-01-30T01:30:47;15.82;;;10.85;;
21894;SDS011;11112;51.270;7.224;2024-01-30T01:33:14;17.02;;;10.05;;
21894;SDS011;11112;51.270;7.224;2024-01-30T01:35:41;14.13;;;10.18;;
21894;SDS011;11112;51.270;7.224;2024-01-30T01:38:08;16.40;;;10.23;;
21894;SDS011;11112;51.270;7.224;2024-01-30T01:40:35;17.85;;;10.48;;
21894;SDS011;11112;51.270;7.224;2024-01-30T01:43:06;15.10;;;10.13;;
21894;SDS011;11112;51.270;7.224;2024-01-30T01:45:33;20.58;;;10.30;;
21894;SDS011;11112;51.270;7.224;2024-01-30T01:47:59;16.80;;;10.35;;
21894;SDS011;11112;51.270;7.224;2024-01-30T01:50:26;17.42;;;10.35;;
21894;SDS011;11112;51.270;7.224;2024-01-30T01:52:53;17.10;;;10.38;;
21894;SDS011;11112;51.270;7.224;2024-01-30T01:55:21;18.13;;;9.98;;
21894;SDS011;11112;51.270;7.224;2024-01-30T01:57:50;15.02;;;10.02;;
21894;SDS011;11112;51.270;7.224;2024-01-30T02:00:20;17.52;;;10.57;;
21894;SDS011;11112;51.270;7.224;2024-01-30T02:02:47;15.30;;;10.38;;
21894;SDS011;11112;51.270;7.224;2024-01-30T02:05:16;17.65;;;9.38;;
21894;SDS011;11112;51.270;7.224;2024-01-30T02:07:43;15.77;;;10.15;;
21894;SDS011;11112;51.270;7.224;2024-01-30T02:10:10;18.23;;;10.55;;
21894;SDS011;11112;51.270;7.224;2024-01-30T02:12:38;15.25;;;10.43;;
21894;SDS011;11112;51.270;7.224;2024-01-30T02:15:05;16.85;;;10.73;;
21894;SDS011;11112;51.270;7.224;2024-01-30T02:17:34;16.33;;;10.60;;
21894;SDS011;11112;51.270;7.224;2024-01-30T02:20:01;15.88;;;10.35;;
21894;SDS011;11112;51.270;7.224;2024-01-30T02:22:31;15.35;;;10.13;;
21894;SDS011;11112;51.270;7.224;2024-01-30T02:25:01;18.10;;;10.65;;
21894;SDS011;11112;51.270;7.224;2024-01-30T02:27:28;15.52;;;9.65;;
21894;SDS011;11112;51.270;7.224;2024-01-30T02:29:55;17.35;;;10.38;;
21894;SDS011;11112;51.270;7.224;2024-01-30T02:32:22;15.82;;;10.27;;
21894;SDS011;11112;51.270;7.224;2024-01-30T02:34:49;16.02;;;9.93;;
21894;SDS011;11112;51.270;7.224;2024-01-30T02:37:16;14.98;;;10.52;;
21894;SDS011;11112;51.270;7.224;2024-01-30T02:39:45;15.18;;;9.80;;
21894;SDS011;11112;51.270;7.224;2024-01-30T02:42:12;15.90;;;9.82;;
21894;SDS011;11112;51.270;7.224;2024-01-30T02:44:39;17.65;;;10.80;;
21894;SDS011;11112;51.270;7.224;2024-01-30T02:47:06;15.82;;;9.98;;
21894;SDS011;11112;51.270;7.224;2024-01-30T02:49:33;16.20;;;10.18;;
21894;SDS011;11112;51.270;7.224;2024-01-30T02:52:00;16.98;;;10.02;;
21894;SDS011;11112;51.270;7.224;2024-01-30T02:54:28;17.55;;;10.48;;
21894;SDS011;11112;51.270;7.224;2024-01-30T02:56:58;15.85;;;10.02;;
21894;SDS011;11112;51.270;7.224;2024-01-30T02:59:25;14.05;;;9.88;;
21894;SDS011;11112;51.270;7.224;2024-01-30T03:01:55;14.48;;;9.80;;
21894;SDS011;11112;51.270;7.224;2024-01-30T03:04:22;18.08;;;10.30;;
21894;SDS011;11112;51.270;7.224;2024-01-30T03:06:49;17.05;;;9.38;;
21894;SDS011;11112;51.270;7.224;2024-01-30T03:09:16;16.33;;;10.20;;
21894;SDS011;11112;51.270;7.224;2024-01-30T03:11:43;18.15;;;10.10;;
21894;SDS011;11112;51.270;7.224;2024-01-30T03:14:14;14.15;;;9.57;;
21894;SDS011;11112;51.270;7.224;2024-01-30T03:16:42;14.55;;;9.73;;
21894;SDS011;11112;51.270;7.224;2024-01-30T03:19:09;15.73;;;10.50;;
21894;SDS011;11112;51.270;7.224;2024-01-30T03:21:36;18.60;;;10.40;;
21894;SDS011;11112;51.270;7.224;2024-01-30T03:24:03;17.42;;;9.93;;
21894;SDS011;11112;51.270;7.224;2024-01-30T03:26:31;15.20;;;9.80;;
21894;SDS011;11112;51.270;7.224;2024-01-30T03:28:58;15.25;;;9.70;;
21894;SDS011;11112;51.270;7.224;2024-01-30T03:31:26;14.13;;;9.50;;
21894;SDS011;11112;51.270;7.224;2024-01-30T03:33:54;14.07;;;9.85;;
21894;SDS011;11112;51.270;7.224;2024-01-30T03:36:21;13.95;;;9.85;;
21894;SDS011;11112;51.270;7.224;2024-01-30T03:38:48;12.32;;;8.90;;
21894;SDS011;11112;51.270;7.224;2024-01-30T03:41:15;14.32;;;9.13;;
21894;SDS011;11112;51.270;7.224;2024-01-30T03:43:42;14.23;;;9.38;;
21894;SDS011;11112;51.270;7.224;2024-01-30T03:46:11;13.43;;;9.27;;
21894;SDS011;11112;51.270;7.224;2024-01-30T03:48:40;13.63;;;9.55;;
21894;SDS011;11112;51.270;7.224;2024-01-30T03:51:07;14.82;;;8.52;;
21894;SDS011;11112;51.270;7.224;2024-01-30T03:53:39;15.32;;;10.05;;
21894;SDS011;11112;51.270;7.224;2024-01-30T03:56:06;16.05;;;9.25;;
21894;SDS011;11112;51.270;7.224;2024-01-30T03:58:33;13.48;;;8.50;;
21894;SDS011;11112;51.270;7.224;2024-01-30T04:01:00;15.85;;;8.95;;
21894;SDS011;11112;51.270;7.224;2024-01-30T04:03:28;15.35;;;8.98;;
21894;SDS011;11112;51.270;7.224;2024-01-30T04:05:57;15.30;;;9.38;;
21894;SDS011;11112;51.270;7.224;2024-01-30T04:08:24;14.75;;;9.02;;
21894;SDS011;11112;51.270;7.224;2024-01-30T04:10:51;17.90;;;8.77;;
21894;SDS011;11112;51.270;7.224;2024-01-30T04:13:19;18.38;;;9.70;;
21894;SDS011;11112;51.270;7.224;2024-01-30T04:15:46;14.85;;;8.68;;
21894;SDS011;11112;51.270;7.224;2024-01-30T04:18:13;14.32;;;8.65;;
21894;SDS011;11112;51.270;7.224;2024-01-30T04:20:40;13.80;;;8.88;;
21894;SDS011;11112;51.270;7.224;2024-01-30T04:23:08;14.10;;;8.57;;
21894;SDS011;11112;51.270;7.224;2024-01-30T04:25:35;14.57;;;8.50;;
21894;SDS011;11112;51.270;7.224;2024-01-30T04:28:02;17.15;;;8.98;;
21894;SDS011;11112;51.270;7.224;2024-01-30T04:30:30;13.75;;;8.55;;
21894;SDS011;11112;51.270;7.224;2024-01-30T04:32:57;15.45;;;8.50;;
21894;SDS011;11112;51.270;7.224;2024-01-30T04:35:24;14.85;;;8.57;;
21894;SDS011;11112;51.270;7.224;2024-01-30T04:37:51;13.20;;;8.77;;
21894;SDS011;11112;51.270;7.224;2024-01-30T04:40:20;12.88;;;8.40;;
21894;SDS011;11112;51.270;7.224;2024-01-30T04:42:48;12.82;;;8.93;;
21894;SDS011;11112;51.270;7.224;2024-01-30T04:45:15;15.90;;;8.65;;
21894;SDS011;11112;51.270;7.224;2024-01-30T04:47:42;13.45;;;8.40;;
21894;SDS011;11112;51.270;7.224;2024-01-30T04:50:09;15.23;;;8.13;;
21894;SDS011;11112;51.270;7.224;2024-01-30T04:52:36;18.02;;;8.80;;
21894;SDS011;11112;51.270;7.224;2024-01-30T04:55:04;16.10;;;8.75;;
21894;SDS011;11112;51.270;7.224;2024-01-30T04:57:33;14.57;;;8.80;;
21894;SDS011;11112;51.270;7.224;2024-01-30T05:00:01;13.68;;;8.52;;
21894;SDS011;11112;51.270;7.224;2024-01-30T05:02:30;14.48;;;8.77;;
21894;SDS011;11112;51.270;7.224;2024-01-30T05:04:57;17.27;;;9.38;;
21894;SDS011;11112;51.270;7.224;2024-01-30T05:07:24;16.65;;;9.20;;
21894;SDS011;11112;51.270;7.224;2024-01-30T05:09:51;13.98;;;8.77;;
21894;SDS011;11112;51.270;7.224;2024-01-30T05:12:19;16.45;;;9.20;;
21894;SDS011;11112;51.270;7.224;2024-01-30T05:14:47;12.95;;;8.48;;
21894;SDS011;11112;51.270;7.224;2024-01-30T05:17:14;14.30;;;8.45;;
21894;SDS011;11112;51.270;7.224;2024-01-30T05:19:42;15.82;;;9.38;;
21894;SDS011;11112;51.270;7.224;2024-01-30T05:22:09;15.45;;;8.57;;
21894;SDS011;11112;51.270;7.224;2024-01-30T05:24:40;14.52;;;8.45;;
21894;SDS011;11112;51.270;7.224;2024-01-30T05:27:08;13.45;;;7.97;;
21894;SDS011;11112;51.270;7.224;2024-01-30T05:29:35;14.48;;;8.82;;
21894;SDS011;11112;51.270;7.224;2024-01-30T05:32:03;17.00;;;8.38;;
21894;SDS011;11112;51.270;7.224;2024-01-30T05:34:31;11.55;;;8.07;;
21894;SDS011;11112;51.270;7.224;2024-01-30T05:36:58;17.88;;;8.40;;
21894;SDS011;11112;51.270;7.224;2024-01-30T05:39:25;15.75;;;8.63;;
21894;SDS011;11112;51.270;7.224;2024-01-30T05:41:52;14.07;;;8.50;;
21894;SDS011;11112;51.270;7.224;2024-01-30T05:44:19;11.70;;;8.32;;
21894;SDS011;11112;51.270;7.224;2024-01-30T05:46:46;12.73;;;8.15;;
21894;SDS011;11112;51.270;7.224;2024-01-30T05:49:15;12.35;;;8.20;;
21894;SDS011;11112;51.270;7.224;2024-01-30T05:51:42;12.68;;;8.02;;
21894;SDS011;11112;51.270;7.224;2024-01-30T05:54:09;12.60;;;8.20;;
21894;SDS011;11112;51.270;7.224;2024-01-30T05:56:36;13.45;;;7.97;;
21894;SDS011;11112;51.270;7.224;2024-01-30T05:59:03;13.13;;;8.10;;
21894;SDS011;11112;51.270;7.224;2024-01-30T06:01:30;11.82;;;8.30;;
21894;SDS011;11112;51.270;7.224;2024-01-30T06:03:58;12.52;;;8.35;;
21894;SDS011;11112;51.270;7.224;2024-01-30T06:06:27;13.75;;;8.77;;
21894;SDS011;11112;51.270;7.224;2024-01-30T06:08:54;15.60;;;8.50;;
21894;SDS011;11112;51.270;7.224;2024-01-30T06:11:21;13.65;;;8.02;;
21894;SDS011;11112;51.270;7.224;2024-01-30T06:13:48;13.73;;;8.27;;
21894;SDS011;11112;51.270;7.224;2024-01-30T06:16:15;11.82;;;7.65;;
21894;SDS011;11112;51.270;7.224;2024-01-30T06:18:42;12.07;;;8.13;;
21894;SDS011;11112;51.270;7.224;2024-01-30T06:21:09;13.80;;;7.93;;
21894;SDS011;11112;51.270;7.224;2024-01-30T06:23:37;12.23;;;7.60;;
21894;SDS011;11112;51.270;7.224;2024-01-30T06:26:04;12.07;;;7.80;;
21894;SDS011;11112;51.270;7.224;2024-01-30T06:28:32;10.95;;;7.32;;
21894;SDS011;11112;51.270;7.224;2024-01-30T06:31:00;12.80;;;7.68;;
21894;SDS011;11112;51.270;7.224;2024-01-30T06:33:28;11.52;;;7.68;;
21894;SDS011;11112;51.270;7.224;2024-01-30T06:35:55;13.30;;;7.55;;
21894;SDS011;11112;51.270;7.224;2024-01-30T06:38:22;12.65;;;8.10;;
21894;SDS011;11112;51.270;7.224;2024-01-30T06:40:50;12.27;;;7.70;;
21894;SDS011;11112;51.270;7.224;2024-01-30T06:43:17;14.90;;;7.63;;
21894;SDS011;11112;51.270;7.224;2024-01-30T06:45:44;11.75;;;7.45;;
21894;SDS011;11112;51.270;7.224;2024-01-30T06:48:12;14.27;;;8.18;;
21894;SDS011;11112;51.270;7.224;2024-01-30T06:50:39;12.75;;;8.02;;
21894;SDS011;11112;51.270;7.224;2024-01-30T06:53:06;13.13;;;8.07;;
21894;SDS011;11112;51.270;7.224;2024-01-30T06:55:33;14.15;;;8.43;;
21894;SDS011;11112;51.270;7.224;2024-01-30T06:58:02;15.90;;;8.23;;
21894;SDS011;11112;51.270;7.224;2024-01-30T07:00:29;14.15;;;7.95;;
21894;SDS011;11112;51.270;7.224;2024-01-30T07:02:56;14.90;;;8.10;;
21894;SDS011;11112;51.270;7.224;2024-01-30T07:05:23;14.57;;;8.25;;
21894;SDS011;11112;51.270;7.224;2024-01-30T07:07:50;14.27;;;8.05;;
21894;SDS011;11112;51.270;7.224;2024-01-30T07:10:18;12.90;;;7.88;;
21894;SDS011;11112;51.270;7.224;2024-01-30T07:12:45;15.38;;;8.45;;
21894;SDS011;11112;51.270;7.224;2024-01-30T07:15:13;13.18;;;7.90;;
21894;SDS011;11112;51.270;7.224;2024-01-30T07:17:44;12.95;;;7.90;;
21894;SDS011;11112;51.270;7.224;2024-01-30T07:20:12;13.10;;;8.18;;
21894;SDS011;11112;51.270;7.224;2024-01-30T07:22:39;13.85;;;8.27;;
21894;SDS011;11112;51.270;7.224;2024-01-30T07:25:07;12.75;;;8.00;;
21894;SDS011;11112;51.270;7.224;2024-01-30T07:27:34;13.05;;;8.32;;
21894;SDS011;11112;51.270;7.224;2024-01-30T07:30:01;12.57;;;8.40;;
21894;SDS011;11112;51.270;7.224;2024-01-30T07:32:30;13.82;;;8.00;;
21894;SDS011;11112;51.270;7.224;2024-01-30T07:34:57;16.05;;;8.63;;
21894;SDS011;11112;51.270;7.224;2024-01-30T07:37:24;12.32;;;7.97;;
21894;SDS011;11112;51.270;7.224;2024-01-30T07:39:53;14.18;;;7.90;;
21894;SDS011;11112;51.270;7.224;2024-01-30T07:42:23;12.40;;;7.78;;
21894;SDS011;11112;51.270;7.224;2024-01-30T07:44:50;13.07;;;7.95;;
21894;SDS011;11112;51.270;7.224;2024-01-30T07:47:17;14.70;;;8.10;;
21894;SDS011;11112;51.270;7.224;2024-01-30T07:49:46;13.82;;;7.72;;
21894;SDS011;11112;51.270;7.224;2024-01-30T07:52:13;16.83;;;8.60;;
21894;SDS011;11112;51.270;7.224;2024-01-30T07:54:41;11.00;;;8.10;;
21894;SDS011;11112;51.270;7.224;2024-01-30T07:57:08;12.73;;;7.63;;
21894;SDS011;11112;51.270;7.224;2024-01-30T07:59:35;11.55;;;7.82;;
21894;SDS011;11112;51.270;7.224;2024-01-30T08:02:02;13.43;;;8.10;;
21894;SDS011;11112;51.270;7.224;2024-01-30T08:04:29;14.68;;;8.77;;
21894;SDS011;11112;51.270;7.224;2024-01-30T08:06:57;11.75;;;7.55;;
21894;SDS011;11112;51.270;7.224;2024-01-30T08:09:24;13.40;;;8.23;;
21894;SDS011;11112;51.270;7.224;2024-01-30T08:11:51;12.35;;;7.57;;
21894;SDS011;11112;51.270;7.224;2024-01-30T08:14:18;11.98;;;7.72;;
21894;SDS011;11112;51.270;7.224;2024-01-30T08:16:45;11.23;;;7.70;;
21894;SDS011;11112;51.270;7.224;2024-01-30T08:19:12;12.70;;;7.80;;
21894;SDS011;11112;51.270;7.224;2024-01-30T08:21:40;13.75;;;7.68;;
21894;SDS011;11112;51.270;7.224;2024-01-30T08:24:09;11.70;;;7.53;;
21894;SDS011;11112;51.270;7.224;2024-01-30T08:26:36;13.23;;;7.32;;
21894;SDS011;11112;51.270;7.224;2024-01-30T08:29:03;10.88;;;7.53;;
21894;SDS011;11112;51.270;7.224;2024-01-30T08:31:32;12.93;;;7.82;;
21894;SDS011;11112;51.270;7.224;2024-01-30T08:33:59;12.55;;;7.78;;
21894;SDS011;11112;51.270;7.224;2024-01-30T08:36:26;13.07;;;7.80;;
21894;SDS011;11112;51.270;7.224;2024-01-30T08:38:53;12.52;;;8.00;;
21894;SDS011;11112;51.270;7.224;2024-01-30T08:41:22;12.32;;;7.38;;
21894;SDS011;11112;51.270;7.224;2024-01-30T08:43:49;11.95;;;7.18;;
21894;SDS011;11112;51.270;7.224;2024-01-30T08:46:17;11.50;;;7.53;;
21894;SDS011;11112;51.270;7.224;2024-01-30T08:48:45;12.43;;;7.80;;
21894;SDS011;11112;51.270;7.224;2024-01-30T08:51:13;14.80;;;7.72;;
21894;SDS011;11112;51.270;7.224;2024-01-30T08:53:41;12.73;;;6.85;;
21894;SDS011;11112;51.270;7.224;2024-01-30T08:56:08;13.70;;;7.30;;
21894;SDS011;11112;51.270;7.224;2024-01-30T08:58:36;10.40;;;6.70;;
21894;SDS011;11112;51.270;7.224;2024-01-30T09:01:03;12.27;;;7.07;;
21894;SDS011;11112;51.270;7.224;2024-01-30T09:03:31;13.00;;;6.82;;
21894;SDS011;11112;51.270;7.224;2024-01-30T09:05:58;12.57;;;7.30;;
21894;SDS011;11112;51.270;7.224;2024-01-30T09:08:26;11.20;;;7.05;;
21894;SDS011;11112;51.270;7.224;2024-01-30T09:10:53;11.10;;;6.88;;
21894;SDS011;11112;51.270;7.224;2024-01-30T09:13:20;12.65;;;7.20;;
21894;SDS011;11112;51.270;7.224;2024-01-30T09:15:48;13.95;;;7.28;;
21894;SDS011;11112;51.270;7.224;2024-01-30T09:18:15;13.38;;;7.60;;
21894;SDS011;11112;51.270;7.224;2024-01-30T09:20:42;14.43;;;7.20;;
21894;SDS011;11112;51.270;7.224;2024-01-30T09:23:10;13.60;;;7.25;;
21894;SDS011;11112;51.270;7.224;2024-01-30T09:25:37;12.32;;;7.35;;
21894;SDS011;11112;51.270;7.224;2024-01-30T09:28:05;12.95;;;6.85;;
21894;SDS011;11112;51.270;7.224;2024-01-30T09:30:32;13.68;;;7.25;;
21894;SDS011;11112;51.270;7.224;2024-01-30T09:33:01;12.18;;;6.68;;
21894;SDS011;11112;51.270;7.224;2024-01-30T09:35:28;12.48;;;7.57;;
21894;SDS011;11112;51.270;7.224;2024-01-30T09:37:55;14.57;;;7.30;;
21894;SDS011;11112;51.270;7.224;2024-01-30T09:40:23;11.60;;;7.20;;
21894;SDS011;11112;51.270;7.224;2024-01-30T09:42:51;12.75;;;7.20;;
21894;SDS011;11112;51.270;7.224;2024-01-30T09:45:19;15.25;;;6.97;;
21894;SDS011;11112;51.270;7.224;2024-01-30T09:47:47;13.48;;;7.57;;
21894;SDS011;11112;51.270;7.224;2024-01-30T09:50:15;13.65;;;6.93;;
21894;SDS011;11112;51.270;7.224;2024-01-30T09:52:44;11.90;;;7.28;;
21894;SDS011;11112;51.270;7.224;2024-01-30T09:55:12;12.98;;;7.72;;
21894;SDS011;11112;51.270;7.224;2024-01-30T09:57:39;10.82;;;7.28;;
21894;SDS011;11112;51.270;7.224;2024-01-30T10:00:08;11.73;;;7.10;;
21894;SDS011;11112;51.270;7.224;2024-01-30T10:02:41;13.48;;;7.15;;
21894;SDS011;11112;51.270;7.224;2024-01-30T10:05:08;13.90;;;7.05;;
21894;SDS011;11112;51.270;7.224;2024-01-30T10:07:36;12.65;;;7.15;;
21894;SDS011;11112;51.270;7.224;2024-01-30T10:10:05;12.68;;;6.78;;
21894;SDS011;11112;51.270;7.224;2024-01-30T10:12:32;12.88;;;7.28;;
21894;SDS011;11112;51.270;7.224;2024-01-30T10:15:00;14.57;;;7.05;;
21894;SDS011;11112;51.270;7.224;2024-01-30T10:17:27;16.40;;;6.85;;
21894;SDS011;11112;51.270;7.224;2024-01-30T10:19:55;12.13;;;7.22;;
21894;SDS011;11112;51.270;7.224;2024-01-30T10:22:22;13.55;;;6.88;;
21894;SDS011;11112;51.270;7.224;2024-01-30T10:24:51;13.93;;;7.03;;
21894;SDS011;11112;51.270;7.224;2024-01-30T10:27:23;12.18;;;6.90;;
21894;SDS011;11112;51.270;7.224;2024-01-30T10:29:52;13.90;;;6.72;;
21894;SDS011;11112;51.270;7.224;2024-01-30T10:32:19;11.60;;;6.65;;
21894;SDS011;11112;51.270;7.224;2024-01-30T10:34:46;14.05;;;6.95;;
21894;SDS011;11112;51.270;7.224;2024-01-30T10:37:14;13.07;;;6.47;;
21894;SDS011;11112;51.270;7.224;2024-01-30T10:39:43;12.32;;;6.63;;
21894;SDS011;11112;51.270;7.224;2024-01-30T10:42:13;10.70;;;6.32;;
21894;SDS011;11112;51.270;7.224;2024-01-30T10:44:44;12.02;;;6.40;;
21894;SDS011;11112;51.270;7.224;2024-01-30T10:47:21;10.88;;;6.10;;
21894;SDS011;11112;51.270;7.224;2024-01-30T10:49:53;15.30;;;6.25;;
21894;SDS011;11112;51.270;7.224;2024-01-30T10:52:22;11.63;;;6.40;;
21894;SDS011;11112;51.270;7.224;2024-01-30T10:54:57;9.43;;;6.00;;
21894;SDS011;11112;51.270;7.224;2024-01-30T10:57:27;10.63;;;6.03;;
21894;SDS011;11112;51.270;7.224;2024-01-30T10:59:55;11.35;;;5.80;;
21894;SDS011;11112;51.270;7.224;2024-01-30T11:02:23;12.02;;;5.80;;
21894;SDS011;11112;51.270;7.224;2024-01-30T11:04:55;10.80;;;6.32;;
21894;SDS011;11112;51.270;7.224;2024-01-30T11:07:24;10.68;;;6.03;;
21894;SDS011;11112;51.270;7.224;2024-01-30T11:09:53;13.10;;;6.05;;
21894;SDS011;11112;51.270;7.224;2024-01-30T11:12:29;10.82;;;6.05;;
21894;SDS011;11112;51.270;7.224;2024-01-30T11:15:01;8.85;;;5.55;;
21894;SDS011;11112;51.270;7.224;2024-01-30T11:17:43;13.43;;;5.63;;
21894;SDS011;11112;51.270;7.224;2024-01-30T11:20:12;12.43;;;5.60;;
21894;SDS011;11112;51.270;7.224;2024-01-30T11:22:42;10.25;;;5.82;;
21894;SDS011;11112;51.270;7.224;2024-01-30T11:25:11;11.15;;;5.38;;
21894;SDS011;11112;51.270;7.224;2024-01-30T11:27:41;11.70;;;6.35;;
21894;SDS011;11112;51.270;7.224;2024-01-30T11:30:09;11.43;;;5.80;;
21894;SDS011;11112;51.270;7.224;2024-01-30T11:32:37;13.23;;;6.22;;
21894;SDS011;11112;51.270;7.224;2024-01-30T11:35:04;12.68;;;5.82;;
21894;SDS011;11112;51.270;7.224;2024-01-30T11:37:34;12.05;;;5.93;;
21894;SDS011;11112;51.270;7.224;2024-01-30T11:40:05;11.25;;;5.88;;
21894;SDS011;11112;51.270;7.224;2024-01-30T11:42:33;10.95;;;6.30;;
21894;SDS011;11112;51.270;7.224;2024-01-30T11:45:06;12.77;;;6.05;;
21894;SDS011;11112;51.270;7.224;2024-01-30T11:47:34;12.02;;;6.15;;
21894;SDS011;11112;51.270;7.224;2024-01-30T11:50:02;12.98;;;5.90;;
21894;SDS011;11112;51.270;7.224;2024-01-30T11:52:31;15.45;;;6.28;;
21894;SDS011;11112;51.270;7.224;2024-01-30T11:54:59;11.52;;;5.85;;
21894;SDS011;11112;51.270;7.224;2024-01-30T11:57:27;13.18;;;5.80;;
21894;SDS011;11112;51.270;7.224;2024-01-30T11:59:54;16.17;;;5.78;;
21894;SDS011;11112;51.270;7.224;2024-01-30T12:02:23;12.27;;;6.13;;
21894;SDS011;11112;51.270;7.224;2024-01-30T12:04:50;13.50;;;6.47;;
21894;SDS011;11112;51.270;7.224;2024-01-30T12:07:17;12.65;;;6.13;;
21894;SDS011;11112;51.270;7.224;2024-01-30T12:09:51;17.67;;;6.60;;
21894;SDS011;11112;51.270;7.224;2024-01-30T12:12:20;12.88;;;5.97;;
21894;SDS011;11112;51.270;7.224;2024-01-30T12:14:49;18.42;;;6.20;;
21894;SDS011;11112;51.270;7.224;2024-01-30T12:17:24;14.30;;;6.53;;
21894;SDS011;11112;51.270;7.224;2024-01-30T12:20:02;17.45;;;6.75;;
21894;SDS011;11112;51.270;7.224;2024-01-30T12:22:32;17.13;;;6.72;;
21894;SDS011;11112;51.270;7.224;2024-01-30T12:25:04;15.38;;;6.30;;
21894;SDS011;11112;51.270;7.224;2024-01-30T12:27:36;15.93;;;6.35;;
21894;SDS011;11112;51.270;7.224;2024-01-30T12:30:05;16.15;;;6.32;;
21894;SDS011;11112;51.270;7.224;2024-01-30T12:32:35;16.23;;;6.63;;
21894;SDS011;11112;51.270;7.224;2024-01-30T12:35:03;17.23;;;7.13;;
21894;SDS011;11112;51.270;7.224;2024-01-30T12:37:34;15.30;;;6.40;;
21894;SDS011;11112;51.270;7.224;2024-01-30T12:40:01;13.35;;;6.50;;
21894;SDS011;11112;51.270;7.224;2024-01-30T12:42:29;12.43;;;6.10;;
21894;SDS011;11112;51.270;7.224;2024-01-30T12:44:56;12.13;;;6.43;;
21894;SDS011;11112;51.270;7.224;2024-01-30T12:47:24;17.42;;;6.60;;
21894;SDS011;11112;51.270;7.224;2024-01-30T12:49:52;15.93;;;6.78;;
21894;SDS011;11112;51.270;7.224;2024-01-30T12:52:20;18.83;;;6.88;;
21894;SDS011;11112;51.270;7.224;2024-01-30T12:54:48;13.32;;;6.93;;
21894;SDS011;11112;51.270;7.224;2024-01-30T12:57:16;13.77;;;6.80;;
21894;SDS011;11112;51.270;7.224;2024-01-30T12:59:44;14.82;;;6.90;;
21894;SDS011;11112;51.270;7.224;2024-01-30T13:02:11;13.05;;;7.35;;
21894;SDS011;11112;51.270;7.224;2024-01-30T13:04:39;15.68;;;7.80;;
21894;SDS011;11112;51.270;7.224;2024-01-30T13:07:08;11.98;;;7.20;;
21894;SDS011;11112;51.270;7.224;2024-01-30T13:09:35;15.95;;;7.70;;
21894;SDS011;11112;51.270;7.224;2024-01-30T13:12:03;16.70;;;7.47;;
21894;SDS011;11112;51.270;7.224;2024-01-30T13:14:30;14.73;;;7.47;;
21894;SDS011;11112;51.270;7.224;2024-01-30T13:16:57;15.77;;;7.63;;
21894;SDS011;11112;51.270;7.224;2024-01-30T13:19:25;14.32;;;7.30;;
21894;SDS011;11112;51.270;7.224;2024-01-30T13:21:52;15.35;;;7.45;;
21894;SDS011;11112;51.270;7.224;2024-01-30T13:24:20;15.48;;;7.60;;
21894;SDS011;11112;51.270;7.224;2024-01-30T13:26:47;12.27;;;7.38;;
21894;SDS011;11112;51.270;7.224;2024-01-30T13:29:15;14.02;;;7.43;;
21894;SDS011;11112;51.270;7.224;2024-01-30T13:31:42;19.83;;;8.30;;
21894;SDS011;11112;51.270;7.224;2024-01-30T13:34:11;15.55;;;8.73;;
21894;SDS011;11112;51.270;7.224;2024-01-30T13:36:39;18.08;;;8.68;;
21894;SDS011;11112;51.270;7.224;2024-01-30T13:39:09;19.50;;;9.15;;
21894;SDS011;11112;51.270;7.224;2024-01-30T13:41:39;14.70;;;8.25;;
21894;SDS011;11112;51.270;7.224;2024-01-30T13:44:07;15.25;;;8.57;;
21894;SDS011;11112;51.270;7.224;2024-01-30T13:46:35;15.93;;;9.40;;
21894;SDS011;11112;51.270;7.224;2024-01-30T13:49:04;14.80;;;8.10;;
21894;SDS011;11112;51.270;7.224;2024-01-30T13:51:31;14.32;;;8.70;;
21894;SDS011;11112;51.270;7.224;2024-01-30T13:53:58;17.05;;;8.40;;
21894;SDS011;11112;51.270;7.224;2024-01-30T13:56:25;12.13;;;8.18;;
21894;SDS011;11112;51.270;7.224;2024-01-30T13:58:54;11.18;;;8.10;;
21894;SDS011;11112;51.270;7.224;2024-01-30T14:01:22;15.63;;;8.15;;
21894;SDS011;11112;51.270;7.224;2024-01-30T14:03:49;14.65;;;8.25;;
21894;SDS011;11112;51.270;7.224;2024-01-30T14:06:16;13.43;;;7.63;;
21894;SDS011;11112;51.270;7.224;2024-01-30T14:08:44;19.17;;;8.93;;
21894;SDS011;11112;51.270;7.224;2024-01-30T14:11:13;14.93;;;8.48;;
21894;SDS011;11112;51.270;7.224;2024-01-30T14:13:41;15.43;;;7.97;;
21894;SDS011;11112;51.270;7.224;2024-01-30T14:16:09;15.25;;;7.93;;
21894;SDS011;11112;51.270;7.224;2024-01-30T14:18:36;14.13;;;7.50;;
21894;SDS011;11112;51.270;7.224;2024-01-30T14:21:03;14.75;;;8.07;;
21894;SDS011;11112;51.270;7.224;2024-01-30T14:23:32;22.55;;;9.20;;
21894;SDS011;11112;51.270;7.224;2024-01-30T14:25:59;13.50;;;7.90;;
21894;SDS011;11112;51.270;7.224;2024-01-30T14:28:27;14.52;;;7.97;;
21894;SDS011;11112;51.270;7.224;2024-01-30T14:30:54;14.00;;;8.10;;
21894;SDS011;11112;51.270;7.224;2024-01-30T14:33:22;18.27;;;8.00;;
21894;SDS011;11112;51.270;7.224;2024-01-30T14:35:51;13.57;;;7.93;;
21894;SDS011;11112;51.270;7.224;2024-01-30T14:38:18;15.05;;;8.48;;